createdAt,value
2023-02-01T00:01:41.310Z,89.33
2023-02-01T00:06:34.717Z,89.63
2023-02-01T00:11:29.437Z,90.00
2023-02-01T00:16:24.814Z,90.62
2023-02-01T00:21:19.866Z,90.58
2023-02-01T00:26:18.624Z,90.71
2023-02-01T00:31:13.571Z,90.40
2023-02-01T00:36:09.107Z,90.46
2023-02-01T00:41:19.297Z,90.21
2023-02-01T00:46:14.137Z,90.09
2023-02-01T00:51:09.095Z,90.04
2023-02-01T00:56:02.937Z,89.64
2023-02-01T01:01:06.895Z,89.62
2023-02-01T01:06:01.612Z,89.47
2023-02-01T01:10:55.128Z,89.17
2023-02-01T01:15:50.740Z,89.11
2023-02-01T01:20:45.394Z,89.08
2023-02-01T01:25:46.032Z,89.34
2023-02-01T01:30:39.383Z,89.18
2023-02-01T01:35:33.829Z,89.63
2023-02-01T01:40:29.168Z,89.75
2023-02-01T01:45:28.883Z,90.07
2023-02-01T01:50:26.003Z,90.06
2023-02-01T01:55:26.924Z,90.33
2023-02-01T02:00:23.749Z,90.29
2023-02-01T02:05:20.823Z,90.58
2023-02-01T02:10:15.237Z,90.43
2023-02-01T02:15:09.990Z,90.26
2023-02-01T02:20:30.305Z,90.79
2023-02-01T02:25:47.139Z,91.18
2023-02-01T02:30:57.944Z,91.17
2023-02-01T02:35:59.449Z,91.35
2023-02-01T02:41:03.729Z,91.40
2023-02-01T02:46:32.176Z,91.04
2023-02-01T02:51:49.204Z,91.21
2023-02-01T02:57:01.466Z,91.16
2023-02-01T03:02:13.566Z,91.48
2023-02-01T03:07:36.962Z,91.29
2023-02-01T03:12:48.060Z,91.08
2023-02-01T03:17:44.848Z,90.94
2023-02-01T03:22:46.116Z,91.53
2023-02-01T03:27:44.431Z,91.61
2023-02-01T03:38:10.281Z,91.67
2023-02-01T03:43:08.833Z,92.06
2023-02-01T03:48:03.848Z,92.29
2023-02-01T03:53:03.033Z,92.37
2023-02-01T03:58:03.705Z,92.73
2023-02-01T04:02:57.976Z,92.73
2023-02-01T04:07:51.393Z,93.05
2023-02-01T04:12:44.721Z,93.38
2023-02-01T04:17:39.465Z,92.89
2023-02-01T04:22:32.908Z,92.74
2023-02-01T04:27:26.697Z,92.82
2023-02-01T04:32:20.956Z,92.20
2023-02-01T04:37:15.898Z,92.09
2023-02-01T04:42:09.742Z,92.28
2023-02-01T04:47:03.089Z,91.90
2023-02-01T04:51:56.549Z,91.54
2023-02-01T04:56:54.318Z,91.28
2023-02-01T05:01:50.720Z,90.85
2023-02-01T05:06:44.130Z,90.93
2023-02-01T05:11:55.114Z,90.98
2023-02-01T05:16:49.902Z,91.33
2023-02-01T05:21:49.323Z,91.32
2023-02-01T05:26:43.563Z,91.39
2023-02-01T05:31:37.625Z,91.51
2023-02-01T05:36:47.815Z,91.64
2023-02-01T05:41:56.466Z,91.22
2023-02-01T05:46:50.312Z,91.06
2023-02-01T05:51:45.380Z,91.66
2023-02-01T05:56:38.687Z,90.94
2023-02-01T06:01:32.080Z,90.95
2023-02-01T06:06:25.657Z,91.02
2023-02-01T06:11:32.362Z,90.95
2023-02-01T06:16:26.344Z,90.36
2023-02-01T06:21:25.060Z,90.07
2023-02-01T06:26:22.833Z,90.02
2023-02-01T06:31:24.792Z,89.71
2023-02-01T06:36:19.830Z,89.36
2023-02-01T06:41:12.963Z,89.24
2023-02-01T06:46:09.466Z,88.84
2023-02-01T06:51:02.627Z,88.81
2023-02-01T06:55:56.403Z,88.76
2023-02-01T07:00:49.609Z,88.12
2023-02-01T07:05:44.482Z,87.60
2023-02-01T07:10:37.607Z,87.44
2023-02-01T07:15:30.981Z,86.77
2023-02-01T07:20:24.995Z,86.48
2023-02-01T07:25:20.024Z,85.95
2023-02-01T07:30:14.234Z,85.71
2023-02-01T07:35:09.021Z,86.03
2023-02-01T07:40:02.094Z,86.74
2023-02-01T07:44:59.712Z,86.57
2023-02-01T07:49:56.960Z,85.71
2023-02-01T07:54:50.168Z,85.48
2023-02-01T08:00:03.283Z,85.53
2023-02-01T08:05:08.027Z,85.51
2023-02-01T08:10:01.546Z,85.18
2023-02-01T08:14:55.049Z,85.57
2023-02-01T08:19:48.246Z,85.40
2023-02-01T08:24:42.932Z,85.41
2023-02-01T08:29:49.618Z,85.60
2023-02-01T08:34:42.658Z,86.10
2023-02-01T08:39:39.195Z,85.51
2023-02-01T08:44:37.646Z,85.36
2023-02-01T08:49:31.008Z,85.73
2023-02-01T08:54:24.415Z,84.87
2023-02-01T08:59:20.735Z,83.22
2023-02-01T09:04:15.445Z,83.35
2023-02-01T09:09:08.618Z,82.89
2023-02-01T09:14:04.915Z,83.86
2023-02-01T09:19:22.098Z,82.85
2023-02-01T09:24:13.324Z,84.05
2023-02-01T09:29:12.126Z,80.09
2023-02-01T09:34:05.874Z,73.05
2023-02-01T09:38:59.954Z,73.85
2023-02-01T09:44:06.069Z,66.99
2023-02-01T09:49:04.035Z,67.66
2023-02-01T09:54:06.940Z,69.29
2023-02-01T09:59:14.827Z,68.95
2023-02-01T10:04:12.088Z,70.37
2023-02-01T10:09:41.044Z,69.50
2023-02-01T10:15:01.408Z,71.67
2023-02-01T10:20:04.856Z,73.18
2023-02-01T10:25:07.318Z,73.42
2023-02-01T10:30:06.485Z,73.64
2023-02-01T10:35:02.302Z,73.47
2023-02-01T10:39:57.363Z,72.34
2023-02-01T10:44:51.283Z,72.03
2023-02-01T10:49:55.564Z,73.90
2023-02-01T10:54:48.910Z,68.20
2023-02-01T10:59:43.202Z,68.13
2023-02-01T11:04:37.989Z,67.73
2023-02-01T11:09:32.663Z,66.75
2023-02-01T11:14:36.150Z,66.68
2023-02-01T11:19:30.180Z,67.38
2023-02-01T11:24:26.084Z,69.05
2023-02-01T11:29:25.809Z,71.03
2023-02-01T11:34:22.137Z,70.27
2023-02-01T11:39:26.265Z,71.95
2023-02-01T11:44:24.905Z,71.46
2023-02-01T11:49:25.277Z,71.45
2023-02-01T11:54:33.405Z,70.77
2023-02-01T11:59:48.702Z,71.35
2023-02-01T12:05:23.336Z,70.60
2023-02-01T12:10:29.736Z,71.04
2023-02-01T12:15:37.719Z,71.37
2023-02-01T12:21:01.039Z,69.63
2023-02-01T12:26:09.787Z,69.96
2023-02-01T12:31:31.550Z,69.58
2023-02-01T12:36:34.317Z,68.67
2023-02-01T12:41:53.865Z,68.90
2023-02-01T12:46:52.565Z,68.38
2023-02-01T12:51:49.114Z,69.28
2023-02-01T12:56:48.991Z,68.26
2023-02-01T13:01:48.497Z,67.01
2023-02-01T13:06:47.530Z,67.80
2023-02-01T13:11:43.106Z,68.48
2023-02-01T13:16:41.286Z,67.43
2023-02-01T13:21:38.966Z,66.77
2023-02-01T13:26:33.490Z,66.72
2023-02-01T13:31:41.476Z,65.74
2023-02-01T13:36:50.326Z,65.44
2023-02-01T13:41:54.940Z,66.26
2023-02-01T13:46:52.562Z,66.60
2023-02-01T13:51:50.691Z,66.63
2023-02-01T13:56:46.193Z,66.23
2023-02-01T14:01:41.655Z,66.94
2023-02-01T14:06:46.325Z,66.05
2023-02-01T14:11:43.323Z,66.34
2023-02-01T14:16:40.061Z,66.84
2023-02-01T14:21:34.476Z,67.18
2023-02-01T14:26:29.997Z,67.54
2023-02-01T14:31:36.516Z,68.00
2023-02-01T14:36:44.159Z,68.88
2023-02-01T14:41:38.337Z,69.67
2023-02-01T14:47:05.668Z,70.96
2023-02-01T14:52:01.564Z,71.87
2023-02-01T14:56:56.463Z,72.61
2023-02-01T15:01:54.562Z,73.21
2023-02-01T15:06:51.040Z,73.73
2023-02-01T15:12:00.652Z,74.14
2023-02-01T15:16:55.671Z,74.98
2023-02-01T16:16:37.715Z,77.05
2023-02-01T17:11:09.236Z,74.19
2023-02-01T18:05:30.459Z,72.70
2023-02-01T18:10:49.914Z,72.70
2023-02-01T18:28:56.090Z,72.33
2023-02-01T18:34:49.273Z,72.63
2023-02-01T18:47:05.163Z,72.17
2023-02-01T18:53:04.259Z,71.84
2023-02-01T18:57:57.828Z,72.24
2023-02-01T19:02:54.251Z,72.53
2023-02-01T19:07:50.624Z,72.53
2023-02-01T19:12:46.593Z,72.80
2023-02-01T19:17:49.172Z,73.23
2023-02-01T19:22:44.377Z,73.46
2023-02-01T19:27:55.770Z,73.76
2023-02-01T19:32:56.131Z,74.27
2023-02-01T19:38:05.533Z,74.17
2023-02-01T19:43:04.592Z,74.63
2023-02-01T19:48:03.545Z,74.88
2023-02-01T19:53:01.905Z,75.13
2023-02-01T19:58:02.505Z,75.23
2023-02-01T20:02:56.532Z,75.24
2023-02-01T20:07:51.350Z,75.48
2023-02-01T20:12:49.445Z,75.79
2023-02-01T20:17:48.507Z,75.66
2023-02-01T20:22:44.132Z,75.77
2023-02-01T20:27:40.628Z,75.91
2023-02-01T20:32:35.705Z,76.02
2023-02-01T20:37:29.123Z,76.18
2023-02-01T20:42:22.627Z,75.76
2023-02-01T20:47:16.344Z,75.81
2023-02-01T20:52:15.159Z,75.92
2023-02-01T20:57:19.929Z,76.36
2023-02-01T21:02:16.470Z,76.47
2023-02-01T21:07:11.343Z,76.43
2023-02-01T21:12:11.567Z,76.15
2023-02-01T21:17:05.188Z,75.90
2023-02-01T21:21:58.463Z,75.76
2023-02-01T21:26:59.183Z,75.25
2023-02-01T21:31:52.814Z,75.17
2023-02-01T21:36:54.857Z,74.77
2023-02-01T21:42:05.853Z,74.13
2023-02-01T21:47:02.338Z,73.25
2023-02-01T21:51:58.487Z,73.70
2023-02-01T21:57:21.315Z,73.22
2023-02-01T22:02:19.954Z,72.95
2023-02-01T22:08:21.961Z,72.49
2023-02-01T22:13:19.701Z,72.72
2023-02-01T22:23:40.477Z,72.76
2023-02-01T22:28:42.015Z,72.33
2023-02-01T22:33:42.642Z,72.31
2023-02-01T22:38:37.126Z,72.15
2023-02-01T22:43:37.326Z,71.72
2023-02-01T22:48:32.557Z,71.87
2023-02-01T22:53:33.896Z,71.67
2023-02-01T22:58:28.787Z,71.65
2023-02-01T23:03:37.809Z,71.41
2023-02-01T23:08:39.405Z,71.71
2023-02-01T23:13:36.176Z,71.79
2023-02-01T23:18:52.618Z,71.78
2023-02-01T23:24:24.347Z,71.96
2023-02-01T23:29:33.226Z,72.20
2023-02-01T23:34:31.882Z,72.22
2023-02-01T23:39:37.448Z,72.33
2023-02-01T23:44:31.229Z,72.29
2023-02-01T23:49:33.229Z,72.09
2023-02-01T23:54:26.888Z,72.11
2023-02-01T23:59:23.791Z,72.33
